Time;durP1;ratioP1;P1;durP2;ratioP2;P2;SDS_P1;SDS_P2;PMS_P1;PMS_P2;Temp;Humidity;BMP_temperature;BMP_pressure;BME280_temperature;BME280_humidity;BME280_pressure;Samples;Min_cycle;Max_cycle;Signal;HPM_P1;HPM_P2
2023/06/02 00:04:49;;;;;;;13.88;4.95;;;;;;;11.08;100.00;101877.41;10484575;28;20032;-76
2023/06/02 00:09:50;;;;;;;9.60;3.20;;;;;;;11.03;100.00;101877.09;10499098;28;20785;-76
2023/06/02 00:14:50;;;;;;;7.18;3.75;;;;;;;10.99;100.00;101875.09;10517450;28;20046;-77
2023/06/02 00:19:51;;;;;;;7.40;3.67;;;;;;;10.97;100.00;101872.41;10521155;28;20416;-76
2023/06/02 00:24:52;;;;;;;10.48;3.03;;;;;;;10.98;100.00;101868.03;10508935;28;20093;-76
2023/06/02 00:29:53;;;;;;;6.53;3.27;;;;;;;10.91;100.00;101869.41;10517353;28;20128;-76
2023/06/02 00:34:53;;;;;;;8.30;3.20;;;;;;;11.02;100.00;101875.28;10465885;28;20064;-76
2023/06/02 00:39:54;;;;;;;8.98;3.70;;;;;;;10.97;100.00;101885.50;10492650;28;20108;-76
2023/06/02 00:44:54;;;;;;;12.85;4.18;;;;;;;10.92;100.00;101886.00;10507981;28;20115;-76
2023/06/02 00:49:55;;;;;;;8.77;4.30;;;;;;;10.77;100.00;101880.72;10507524;28;20435;-76
2023/06/02 00:54:56;;;;;;;6.65;3.42;;;;;;;10.71;100.00;101878.59;10507988;28;20040;-76
2023/06/02 00:59:56;;;;;;;17.05;4.47;;;;;;;10.62;100.00;101876.31;10524752;28;20048;-76
2023/06/02 01:04:57;;;;;;;11.35;4.00;;;;;;;10.70;100.00;101875.09;10508758;28;20234;-76
2023/06/02 01:10:00;;;;;;;7.38;3.92;;;;;;;10.68;100.00;101873.19;10485715;28;20498;-76
2023/06/02 01:15:00;;;;;;;10.02;3.78;;;;;;;10.58;100.00;101871.69;10523613;28;20483;-76
2023/06/02 01:20:05;;;;;;;7.53;3.65;;;;;;;10.49;100.00;101882.47;10501349;28;20036;-76
2023/06/02 01:25:22;;;;;;;8.00;4.57;;;;;;;10.55;100.00;101880.25;10481226;28;20059;-76
2023/06/02 01:30:22;;;;;;;12.60;4.63;;;;;;;10.55;100.00;101885.47;10483193;28;20036;-76
2023/06/02 01:35:25;;;;;;;9.95;4.18;;;;;;;10.43;100.00;101889.94;10459761;28;20037;-77
2023/06/02 01:40:25;;;;;;;6.70;3.63;;;;;;;10.35;100.00;101888.50;10524435;28;20060;-75
2023/06/02 01:45:26;;;;;;;8.43;3.60;;;;;;;10.27;100.00;101886.28;10467399;28;20127;-76
2023/06/02 01:50:26;;;;;;;11.13;4.45;;;;;;;10.17;100.00;101886.47;10506330;28;20032;-76
2023/06/02 01:55:27;;;;;;;12.18;4.13;;;;;;;10.08;100.00;101883.25;10512595;28;20111;-76
2023/06/02 02:00:28;;;;;;;8.65;4.00;;;;;;;9.92;100.00;101884.88;10515009;28;20028;-76
2023/06/02 02:05:28;;;;;;;6.90;3.60;;;;;;;9.91;100.00;101887.41;10547676;28;20055;-76
2023/06/02 02:10:29;;;;;;;8.95;3.70;;;;;;;9.89;100.00;101889.00;10532097;28;20372;-75
2023/06/02 02:15:30;;;;;;;7.97;3.83;;;;;;;9.81;100.00;101891.09;10531355;28;20154;-75
2023/06/02 02:20:30;;;;;;;6.72;3.17;;;;;;;9.82;100.00;101898.13;10513855;28;20032;-75
2023/06/02 02:25:31;;;;;;;8.45;4.50;;;;;;;9.73;100.00;101892.28;10507697;28;20043;-76
2023/06/02 02:30:31;;;;;;;14.48;3.60;;;;;;;9.65;100.00;101900.50;10504780;28;20145;-76
2023/06/02 02:35:32;;;;;;;14.00;3.83;;;;;;;9.75;100.00;101898.50;10472037;28;20123;-75
2023/06/02 02:40:32;;;;;;;8.57;4.45;;;;;;;9.75;100.00;101896.81;10487629;28;20124;-75
2023/06/02 02:45:33;;;;;;;9.85;3.97;;;;;;;9.72;100.00;101890.47;10505080;28;20123;-75
2023/06/02 02:50:33;;;;;;;12.45;5.68;;;;;;;9.69;100.00;101899.03;10504529;28;20123;-75
2023/06/02 02:55:34;;;;;;;10.18;4.50;;;;;;;9.72;100.00;101896.63;10503062;28;20094;-75
2023/06/02 03:00:35;;;;;;;12.07;4.40;;;;;;;9.72;100.00;101895.69;10507086;28;20062;-76
2023/06/02 03:05:37;;;;;;;10.23;3.60;;;;;;;9.74;100.00;101896.69;10496167;28;20476;-75
2023/06/02 03:10:37;;;;;;;76.63;11.43;;;;;;;9.64;100.00;101898.69;10503701;28;20036;-74
2023/06/02 03:15:38;;;;;;;7.95;3.50;;;;;;;9.63;100.00;101894.25;10487359;28;20036;-76
2023/06/02 03:20:38;;;;;;;8.68;4.50;;;;;;;9.57;100.00;101901.69;10493217;28;20448;-76
2023/06/02 03:25:40;;;;;;;12.70;6.45;;;;;;;9.50;100.00;101902.06;10524168;28;20119;-75
2023/06/02 03:30:41;;;;;;;13.55;4.18;;;;;;;9.55;100.00;101906.84;10511564;28;20032;-75
2023/06/02 03:35:41;;;;;;;15.00;5.03;;;;;;;9.51;100.00;101896.03;10527448;28;20476;-75
2023/06/02 03:40:42;;;;;;;8.55;5.25;;;;;;;9.49;100.00;101900.25;10522649;28;20113;-75
2023/06/02 03:45:43;;;;;;;12.02;4.50;;;;;;;9.63;100.00;101907.34;10497384;28;20617;-76
2023/06/02 03:50:43;;;;;;;8.73;4.93;;;;;;;9.68;100.00;101903.31;10528058;28;20510;-75
2023/06/02 03:55:44;;;;;;;10.90;4.30;;;;;;;9.80;100.00;101900.66;10508658;28;20059;-75
2023/06/02 04:00:44;;;;;;;13.40;4.82;;;;;;;9.83;100.00;101902.56;10529027;28;20166;-75
2023/06/02 04:05:45;;;;;;;10.05;4.80;;;;;;;9.74;100.00;101908.09;10522430;28;20487;-75
2023/06/02 04:10:45;;;;;;;12.43;5.10;;;;;;;9.80;100.00;101910.19;10508197;28;20029;-75
2023/06/02 04:15:46;;;;;;;12.27;4.82;;;;;;;9.84;100.00;101906.97;10491028;28;20044;-75
2023/06/02 04:20:47;;;;;;;10.18;4.35;;;;;;;9.93;100.00;101911.94;10492702;28;20040;-76
2023/06/02 04:25:47;;;;;;;12.80;4.50;;;;;;;9.96;100.00;101918.25;10514387;28;20484;-75
2023/06/02 04:30:55;;;;;;;10.90;4.90;;;;;;;9.89;100.00;101913.44;10483416;28;20052;-76
2023/06/02 04:35:56;;;;;;;15.57;5.03;;;;;;;9.95;100.00;101907.72;10461896;28;20571;-75
2023/06/02 04:40:57;;;;;;;11.30;5.32;;;;;;;10.00;100.00;101914.16;10526090;28;20040;-74
2023/06/02 04:46:01;;;;;;;13.85;4.22;;;;;;;10.02;100.00;101914.25;10506665;28;20044;-75
2023/06/02 04:51:02;;;;;;;11.07;4.82;;;;;;;10.05;100.00;101919.69;10475939;28;20801;-75
2023/06/02 04:56:03;;;;;;;8.80;3.83;;;;;;;10.11;100.00;101917.47;10506843;28;20028;-74
2023/06/02 05:01:03;;;;;;;19.42;5.40;;;;;;;10.18;100.00;101924.03;10491337;28;20036;-75
2023/06/02 05:06:04;;;;;;;21.20;5.43;;;;;;;10.16;100.00;101921.28;10501522;28;20090;-75
2023/06/02 05:11:05;;;;;;;10.93;4.22;;;;;;;10.18;100.00;101924.91;10498652;28;20032;-75
2023/06/02 05:16:06;;;;;;;14.00;5.50;;;;;;;10.19;100.00;101920.63;10448944;28;20044;-75
2023/06/02 05:21:07;;;;;;;12.15;5.32;;;;;;;10.20;100.00;101917.19;10504227;28;20046;-75
2023/06/02 05:26:07;;;;;;;10.30;4.43;;;;;;;10.21;100.00;101926.84;10525162;28;20119;-76
2023/06/02 05:31:09;;;;;;;12.18;5.32;;;;;;;10.21;100.00;101927.75;10464148;28;20037;-75
2023/06/02 05:36:09;;;;;;;16.60;5.95;;;;;;;10.46;100.00;101925.88;10517935;28;20036;-76
2023/06/02 05:41:10;;;;;;;12.68;4.78;;;;;;;10.53;100.00;101930.72;10489974;28;20032;-76
2023/06/02 05:46:11;;;;;;;12.40;4.53;;;;;;;10.57;100.00;101937.94;10463063;28;20045;-75
2023/06/02 05:51:11;;;;;;;38.83;5.57;;;;;;;10.69;100.00;101933.50;10482735;28;20432;-75
2023/06/02 05:56:12;;;;;;;17.75;9.48;;;;;;;10.73;100.00;101937.22;10493279;28;20123;-75
2023/06/02 06:01:12;;;;;;;7.38;4.43;;;;;;;10.86;100.00;101942.41;10515440;28;20123;-75
2023/06/02 06:06:13;;;;;;;10.52;4.05;;;;;;;10.94;100.00;101949.88;10524811;28;20040;-75
2023/06/02 06:11:13;;;;;;;15.18;5.38;;;;;;;11.06;100.00;101942.78;10522680;28;20050;-76
2023/06/02 06:16:14;;;;;;;10.95;4.80;;;;;;;11.10;100.00;101939.53;10506660;28;20038;-76
2023/06/02 06:21:14;;;;;;;12.25;4.40;;;;;;;11.20;100.00;101941.03;10504931;28;20126;-75
2023/06/02 06:26:16;;;;;;;9.25;3.63;;;;;;;11.24;100.00;101955.22;10500297;28;20108;-74
2023/06/02 06:31:16;;;;;;;13.10;5.95;;;;;;;11.34;100.00;101947.13;10506528;28;20044;-75
2023/06/02 06:36:17;;;;;;;12.77;4.32;;;;;;;11.55;100.00;101944.00;10489818;28;20127;-74
2023/06/02 06:41:27;;;;;;;7.55;3.97;;;;;;;11.43;100.00;101949.41;10506180;28;20380;-75
2023/06/02 06:46:28;;;;;;;16.33;5.32;;;;;;;11.45;100.00;101953.03;10480013;28;20046;-74
2023/06/02 06:51:28;;;;;;;10.98;3.55;;;;;;;11.64;100.00;101960.28;10470796;28;20036;-75
2023/06/02 06:56:29;;;;;;;13.60;6.97;;;;;;;11.77;100.00;101955.78;10504643;28;20040;-75
2023/06/02 07:01:29;;;;;;;26.27;7.45;;;;;;;11.86;100.00;101958.97;10519840;28;20064;-74
2023/06/02 07:06:30;;;;;;;12.85;6.60;;;;;;;11.94;100.00;101957.72;10514253;28;20127;-75
2023/06/02 07:11:31;;;;;;;13.75;4.25;;;;;;;11.99;100.00;101952.75;10503457;28;20047;-74
2023/06/02 07:16:31;;;;;;;8.18;3.50;;;;;;;12.16;100.00;101953.75;10484606;28;20037;-74
2023/06/02 07:21:32;;;;;;;8.65;4.00;;;;;;;12.04;100.00;101952.22;10522746;28;20060;-75
2023/06/02 07:26:34;;;;;;;7.72;2.78;;;;;;;12.04;100.00;101953.97;10486155;28;20079;-74
2023/06/02 07:31:34;;;;;;;14.13;3.28;;;;;;;12.04;100.00;101957.47;10482335;28;20041;-75
2023/06/02 07:36:35;;;;;;;9.45;3.40;;;;;;;12.11;100.00;101957.84;10491255;28;20114;-77
2023/06/02 07:41:35;;;;;;;12.88;4.40;;;;;;;12.25;100.00;101962.16;10516122;28;20123;-76
2023/06/02 07:46:36;;;;;;;8.05;4.18;;;;;;;12.48;100.00;101959.97;10528800;28;20069;-76
2023/06/02 07:51:36;;;;;;;11.20;3.60;;;;;;;12.62;100.00;101952.91;10479750;28;20036;-76
2023/06/02 07:56:37;;;;;;;11.93;4.20;;;;;;;12.76;100.00;101948.41;10450187;28;20056;-77
2023/06/02 08:01:38;;;;;;;10.68;4.40;;;;;;;13.00;100.00;101954.13;10533655;28;20063;-76
2023/06/02 08:06:39;;;;;;;7.28;3.63;;;;;;;13.03;100.00;101958.63;10528259;28;20134;-76
2023/06/02 08:11:39;;;;;;;14.45;5.72;;;;;;;13.09;100.00;101955.47;10485717;28;20098;-77
2023/06/02 08:16:41;;;;;;;13.23;4.07;;;;;;;13.29;100.00;101962.72;10504939;28;20043;-75
2023/06/02 08:21:42;;;;;;;10.27;3.60;;;;;;;13.57;100.00;101958.03;10499667;28;20056;-75
2023/06/02 08:26:44;;;;;;;11.60;4.45;;;;;;;13.75;100.00;101961.63;10495263;28;20499;-77
2023/06/02 08:31:44;;;;;;;22.30;4.65;;;;;;;13.87;100.00;101955.19;10506752;28;20048;-75
2023/06/02 08:36:45;;;;;;;16.63;4.00;;;;;;;14.37;100.00;101955.97;10498599;28;20178;-77
2023/06/02 08:41:46;;;;;;;15.38;5.18;;;;;;;14.45;100.00;101959.88;10516668;28;20159;-76
2023/06/02 08:46:49;;;;;;;10.55;3.30;;;;;;;14.53;100.00;101958.53;10503442;28;20040;-76
2023/06/02 08:51:52;;;;;;;10.35;3.70;;;;;;;15.13;100.00;101949.03;10486652;28;20582;-77
2023/06/02 08:56:57;;;;;;;9.68;5.22;;;;;;;15.81;95.35;101949.41;10496625;28;20461;-76
2023/06/02 09:02:00;;;;;;;12.23;3.90;;;;;;;15.81;90.83;101946.78;10486056;28;20032;-76
2023/06/02 09:07:13;;;;;;;;;;;;;;;15.79;84.72;101942.28;10486918;28;20052;-77
2023/06/02 09:12:17;;;;;;;8.40;3.55;;;;;;;18.60;76.65;101943.13;10477555;28;20007;-76
2023/06/02 09:17:27;;;;;;;;;;;;;;;19.45;60.17;101944.78;10520336;28;20434;-77
2023/06/02 09:22:28;;;;;;;6.38;3.53;;;;;;;19.96;58.25;101942.63;10485075;28;20390;-77
2023/06/02 09:27:28;;;;;;;11.30;3.22;;;;;;;19.27;56.80;101939.81;10501274;28;20051;-77
2023/06/02 09:32:29;;;;;;;7.32;4.35;;;;;;;20.30;54.71;101945.22;10476661;28;20414;-78
2023/06/02 09:37:30;;;;;;;12.90;4.43;;;;;;;19.11;56.13;101940.22;10502116;28;20554;-78
2023/06/02 09:42:41;;;;;;;10.80;4.13;;;;;;;19.98;54.71;101934.69;10529783;28;20119;-78
2023/06/02 09:47:41;;;;;;;15.70;5.20;;;;;;;20.01;54.82;101934.75;10472774;28;20044;-78
2023/06/02 09:52:42;;;;;;;9.18;3.47;;;;;;;21.54;50.09;101929.31;10503571;28;20043;-78
2023/06/02 09:57:42;;;;;;;16.15;4.50;;;;;;;20.31;52.80;101937.28;10462928;28;20036;-78
2023/06/02 10:02:44;;;;;;;13.18;3.60;;;;;;;20.13;54.42;101928.88;10454973;28;20879;-78
2023/06/02 10:08:00;;;;;;;9.38;4.07;;;;;;;20.96;54.96;101912.19;10485881;28;20064;-78
2023/06/02 10:13:22;;;;;;;11.77;4.93;;;;;;;23.68;48.41;101910.22;10530435;28;20063;-78
2023/06/02 10:18:29;;;;;;;7.90;3.80;;;;;;;24.86;38.55;101911.13;10529841;28;20032;-80
2023/06/02 10:23:46;;;;;;;8.68;3.38;;;;;;;23.72;39.71;101906.69;10514157;28;20050;-78
2023/06/02 10:28:47;;;;;;;14.40;3.85;;;;;;;24.16;39.87;101892.84;10497589;28;20050;-78
2023/06/02 10:33:48;;;;;;;11.60;4.50;;;;;;;23.98;43.39;101890.00;10469526;28;20120;-78
2023/06/02 10:38:49;;;;;;;9.50;4.30;;;;;;;24.41;40.43;101895.69;10493811;28;20051;-77
2023/06/02 10:44:24;;;;;;;12.13;4.10;;;;;;;24.31;40.70;101894.72;10492461;28;20071;-78
2023/06/02 10:49:57;;;;;;;13.70;3.88;;;;;;;24.11;42.25;101885.66;10491652;28;20043;-77
2023/06/02 10:55:07;;;;;;;16.20;5.50;;;;;;;24.30;42.00;101892.94;10508343;28;20480;-76
2023/06/02 11:00:35;;;;;;;12.15;5.47;;;;;;;22.47;41.69;101890.06;10509195;28;20072;-78
2023/06/02 11:05:35;;;;;;;12.93;6.78;;;;;;;23.52;44.55;101879.78;10486589;28;20075;-77
2023/06/02 11:10:43;;;;;;;14.83;4.40;;;;;;;24.16;40.89;101875.88;10530708;28;20124;-77
2023/06/02 11:15:56;;;;;;;9.57;4.35;;;;;;;24.02;39.92;101878.47;10527006;28;20044;-77
2023/06/02 11:21:03;;;;;;;9.38;4.88;;;;;;;23.98;38.40;101871.28;10529044;28;20069;-78
2023/06/02 11:26:07;;;;;;;14.55;6.15;;;;;;;23.27;41.66;101871.50;10494043;28;20151;-78
2023/06/02 11:31:15;;;;;;;17.15;4.63;;;;;;;22.72;43.12;101872.59;10487376;28;20036;-77
2023/06/02 11:36:25;;;;;;;11.15;4.30;;;;;;;23.68;43.65;101868.34;10494782;28;20496;-77
2023/06/02 11:41:26;;;;;;;7.93;4.35;;;;;;;24.58;42.89;101855.63;10470763;28;20040;-77
2023/06/02 11:46:26;;;;;;;10.93;4.67;;;;;;;24.24;40.93;101867.94;10498162;28;20119;-77
2023/06/02 11:51:27;;;;;;;6.50;4.50;;;;;;;24.93;41.65;101860.28;10516401;28;20126;-78
2023/06/02 11:56:28;;;;;;;9.27;4.87;;;;;;;25.07;40.26;101851.38;10509200;28;20124;-77
2023/06/02 12:01:32;;;;;;;8.98;4.72;;;;;;;25.38;42.48;101845.22;10502823;28;20091;-78
2023/06/02 12:06:35;;;;;;;9.20;5.10;;;;;;;23.64;44.73;101853.16;10509844;28;20028;-80
2023/06/02 12:11:35;;;;;;;11.18;4.53;;;;;;;25.19;40.43;101843.38;10504213;28;20043;-79
2023/06/02 12:16:42;;;;;;;9.60;4.70;;;;;;;25.65;39.53;101850.63;10513956;28;20059;-78
2023/06/02 12:21:43;;;;;;;14.15;5.28;;;;;;;25.07;42.78;101841.59;10479867;28;20166;-81
2023/06/02 12:26:45;;;;;;;15.30;6.50;;;;;;;23.08;44.98;101838.34;10491943;28;20036;-78
2023/06/02 12:31:45;;;;;;;8.98;4.70;;;;;;;22.56;49.30;101850.19;10483675;28;20573;-81
2023/06/02 12:36:46;;;;;;;15.27;7.67;;;;;;;23.16;45.91;101853.56;10508114;28;20028;-79
2023/06/02 12:41:46;;;;;;;11.10;6.17;;;;;;;23.44;45.46;101843.19;10498062;28;20064;-79
2023/06/02 12:46:47;;;;;;;12.73;5.50;;;;;;;22.97;48.16;101840.88;10507773;28;20085;-78
2023/06/02 12:51:48;;;;;;;12.17;5.60;;;;;;;21.65;50.89;101852.31;10505955;28;20060;-78
2023/06/02 12:56:48;;;;;;;14.67;5.30;;;;;;;22.72;50.54;101843.25;10491131;28;20124;-79
2023/06/02 13:01:49;;;;;;;17.47;6.20;;;;;;;22.79;50.57;101831.78;10519571;28;20059;-80
2023/06/02 13:06:49;;;;;;;11.90;5.10;;;;;;;22.35;49.34;101838.28;10525550;28;20075;-82
2023/06/02 13:11:50;;;;;;;14.40;5.40;;;;;;;23.91;46.72;101824.88;10481916;28;20130;-80
2023/06/02 13:16:51;;;;;;;11.10;5.60;;;;;;;23.97;48.43;101832.94;10495516;28;20063;-77
2023/06/02 13:21:51;;;;;;;14.17;5.97;;;;;;;22.90;47.17;101841.69;10507887;28;20037;-76
2023/06/02 13:26:53;;;;;;;12.60;5.37;;;;;;;22.65;48.99;101834.28;10516531;28;20564;-79
2023/06/02 13:31:54;;;;;;;;;;;;;;;22.66;50.11;101843.16;10513085;28;20044;-80
2023/06/02 13:36:54;;;;;;;17.02;5.45;;;;;;;22.21;52.37;101848.75;10498444;28;19920;-79
2023/06/02 13:41:55;;;;;;;13.83;6.27;;;;;;;21.50;55.06;101839.56;10511769;28;20139;-81
2023/06/02 13:46:55;;;;;;;9.40;4.70;;;;;;;22.46;54.07;101825.13;10529482;28;20074;-79
2023/06/02 13:51:56;;;;;;;16.40;6.47;;;;;;;21.70;54.30;101838.19;10514704;28;20070;-79
2023/06/02 13:56:56;;;;;;;27.27;9.57;;;;;;;23.15;55.15;101817.06;10500888;28;20552;-78
2023/06/02 14:01:57;;;;;;;13.60;5.70;;;;;;;22.44;50.41;101821.50;10538291;28;20036;-79
2023/06/02 14:06:58;;;;;;;10.02;4.78;;;;;;;21.17;57.93;101824.75;10499239;28;20032;-78
2023/06/02 14:11:58;;;;;;;7.23;5.23;;;;;;;23.24;51.61;101815.41;10500614;28;20064;-78
2023/06/02 14:16:59;;;;;;;19.50;5.20;;;;;;;23.16;51.29;101813.50;10526760;28;20395;-79
2023/06/02 14:21:59;;;;;;;11.73;4.07;;;;;;;22.90;49.51;101821.25;10513132;28;20055;-79
2023/06/02 14:27:00;;;;;;;14.97;6.67;;;;;;;21.16;57.13;101821.22;10525604;28;20488;-80
2023/06/02 14:32:00;;;;;;;14.37;4.87;;;;;;;21.94;58.79;101809.25;10529009;28;20070;-80
2023/06/02 14:37:01;;;;;;;15.50;4.60;;;;;;;21.43;57.30;101806.63;10508813;28;20040;-79
2023/06/02 14:42:02;;;;;;;14.13;4.87;;;;;;;21.48;55.64;101818.25;10491174;28;20052;-83
2023/06/02 14:47:03;;;;;;;10.47;5.20;;;;;;;21.90;54.43;101802.09;10514080;28;20043;-85
2023/06/02 14:52:03;;;;;;;13.33;4.40;;;;;;;22.05;57.30;101809.41;10486630;28;20090;-81
2023/06/02 14:57:04;;;;;;;7.00;3.50;;;;;;;21.93;58.19;101794.13;10496929;28;20051;-81
2023/06/02 15:02:06;;;;;;;7.60;4.57;;;;;;;21.37;59.04;101799.41;10497081;28;20086;-79
2023/06/02 15:07:06;;;;;;;11.80;5.13;;;;;;;20.42;63.30;101787.78;10477608;28;20041;-80
2023/06/02 15:12:07;;;;;;;10.30;5.17;;;;;;;20.20;62.34;101788.19;10469678;28;20127;-79
2023/06/02 15:17:07;;;;;;;13.07;3.73;;;;;;;20.15;63.84;101768.59;10501767;28;20773;-82
2023/06/02 15:22:08;;;;;;;9.17;4.80;;;;;;;20.23;65.26;101779.41;10507919;28;20492;-81
2023/06/02 15:27:08;;;;;;;11.82;5.35;;;;;;;19.36;71.39;101772.88;10486734;28;20044;-80
2023/06/02 15:32:09;;;;;;;9.73;4.45;;;;;;;18.96;75.76;101771.78;10486486;28;20557;-79
2023/06/02 15:37:09;;;;;;;14.15;4.05;;;;;;;18.87;82.48;101774.19;10527733;27;20488;-81
2023/06/02 15:42:10;;;;;;;9.15;4.65;;;;;;;19.06;71.44;101765.91;10510391;28;20119;-82
2023/06/02 15:47:10;;;;;;;15.00;5.60;;;;;;;18.92;74.35;101765.50;10484059;28;20124;-84
2023/06/02 15:52:11;;;;;;;10.13;4.65;;;;;;;19.15;84.32;101764.34;10514965;28;20032;-80
2023/06/02 15:57:11;;;;;;;15.85;4.15;;;;;;;19.39;84.28;101757.88;10497638;28;20058;-79
2023/06/02 16:02:12;;;;;;;10.55;3.55;;;;;;;19.38;75.96;101757.00;10522883;28;20028;-78
2023/06/02 16:07:12;;;;;;;11.68;4.05;;;;;;;19.13;75.55;101758.09;10485444;28;20131;-79
2023/06/02 16:12:13;;;;;;;52.60;7.53;;;;;;;18.86;76.23;101743.22;10511191;28;20040;-81
2023/06/02 16:17:13;;;;;;;10.63;4.53;;;;;;;18.88;86.47;101738.84;10506064;28;20067;-80
2023/06/02 16:22:14;;;;;;;12.48;4.07;;;;;;;18.53;75.88;101746.72;10492498;28;20055;-82
2023/06/02 16:27:14;;;;;;;11.13;4.70;;;;;;;18.09;85.89;101750.72;10511690;28;20159;-80
2023/06/02 16:32:15;;;;;;;8.65;3.75;;;;;;;18.37;95.31;101745.38;10505710;28;20377;-80
2023/06/02 16:37:18;;;;;;;7.68;3.63;;;;;;;18.81;79.24;101751.06;10505591;28;20043;-82
2023/06/02 16:42:18;;;;;;;10.50;4.72;;;;;;;18.87;83.72;101740.63;10510539;28;20037;-81
2023/06/02 16:47:20;;;;;;;11.77;4.78;;;;;;;18.83;75.46;101740.47;10511101;28;20048;-83
2023/06/02 16:52:20;;;;;;;7.50;3.55;;;;;;;18.31;86.29;101743.44;10526335;28;20040;-82
2023/06/02 16:57:21;;;;;;;12.05;4.63;;;;;;;18.22;87.15;101746.72;10512818;28;20119;-80
2023/06/02 17:02:22;;;;;;;10.05;3.30;;;;;;;17.90;85.04;101744.81;10483710;28;20040;-81
2023/06/02 17:07:22;;;;;;;18.70;4.15;;;;;;;17.71;93.52;101747.75;10503795;28;20044;-81
2023/06/02 17:12:23;;;;;;;11.52;3.08;;;;;;;17.88;93.70;101751.81;10518104;28;20503;-81
2023/06/02 17:17:24;;;;;;;11.40;3.85;;;;;;;17.88;88.71;101745.66;10482085;28;20479;-81
2023/06/02 17:22:25;;;;;;;9.52;3.15;;;;;;;17.79;88.57;101745.34;10470093;28;20420;-80
2023/06/02 17:27:26;;;;;;;8.70;2.65;;;;;;;17.75;86.56;101750.56;10522126;28;20040;-79
2023/06/02 17:32:26;;;;;;;8.32;3.78;;;;;;;17.56;91.71;101756.97;10523735;28;20036;-78
2023/06/02 17:37:30;;;;;;;5.38;2.53;;;;;;;17.34;88.01;101750.09;10522172;28;20519;-78
2023/06/02 17:42:31;;;;;;;8.00;2.92;;;;;;;17.07;90.96;101752.66;10522298;28;20051;-78
2023/06/02 17:47:34;;;;;;;8.32;3.00;;;;;;;16.90;91.81;101759.97;10511338;28;20480;-77
2023/06/02 17:52:39;;;;;;;11.80;3.35;;;;;;;16.76;91.59;101752.44;10510142;28;20492;-78
2023/06/02 17:57:50;;;;;;;8.48;2.70;;;;;;;16.70;93.24;101753.09;10504114;28;20547;-77
2023/06/02 18:03:01;;;;;;;10.40;2.42;;;;;;;16.65;96.40;101749.41;10518010;28;20583;-78
2023/06/02 18:08:09;;;;;;;11.85;3.40;;;;;;;16.64;93.43;101749.34;10508113;28;20127;-77
2023/06/02 18:13:20;;;;;;;8.00;3.38;;;;;;;16.53;93.87;101754.22;10483646;28;20049;-76
2023/06/02 18:18:31;;;;;;;5.93;3.15;;;;;;;16.51;91.83;101748.91;10501625;28;20036;-78
2023/06/02 18:23:45;;;;;;;;;;;;;;;16.41;96.69;101745.00;10520868;28;20123;-77
2023/06/02 18:28:47;;;;;;;8.35;3.92;;;;;;;16.11;100.00;101748.28;10531352;28;19959;-77
2023/06/02 18:33:50;;;;;;;12.85;3.22;;;;;;;15.90;100.00;101748.34;10525189;28;20043;-77
2023/06/02 18:38:59;;;;;;;7.63;2.78;;;;;;;15.80;100.00;101738.22;10512116;28;20526;-76
2023/06/02 18:44:00;;;;;;;8.93;3.22;;;;;;;15.64;100.00;101747.25;10530201;28;20506;-77
2023/06/02 18:49:03;;;;;;;11.53;4.73;;;;;;;15.34;100.00;101753.03;10509194;28;20044;-77
2023/06/02 18:54:08;;;;;;;6.10;3.33;;;;;;;15.08;100.00;101744.91;10530008;28;20040;-77
2023/06/02 18:59:10;;;;;;;11.75;4.03;;;;;;;14.90;100.00;101748.56;10487294;28;20036;-78
2023/06/02 19:04:15;;;;;;;5.57;2.58;;;;;;;14.85;100.00;101738.66;10517820;28;20036;-77
2023/06/02 19:09:16;;;;;;;8.63;3.30;;;;;;;14.63;100.00;101746.47;10510567;28;20042;-78
2023/06/02 19:14:21;;;;;;;8.85;3.03;;;;;;;14.42;100.00;101751.66;10528369;28;20046;-78
2023/06/02 19:19:23;;;;;;;9.73;3.17;;;;;;;14.15;100.00;101748.63;10525618;28;20040;-78
2023/06/02 19:24:25;;;;;;;6.30;2.75;;;;;;;13.79;100.00;101760.13;10526943;28;20044;-78
2023/06/02 19:29:30;;;;;;;7.07;2.88;;;;;;;13.47;100.00;101764.69;10511434;28;20043;-77
2023/06/02 19:34:31;;;;;;;9.48;3.35;;;;;;;13.15;100.00;101761.28;10508440;28;20036;-83
2023/06/02 19:39:32;;;;;;;9.38;3.45;;;;;;;12.88;100.00;101754.66;10526855;28;20032;-82
2023/06/02 19:44:33;;;;;;;6.00;2.90;;;;;;;12.62;100.00;101766.44;10527049;28;20395;-84
2023/06/02 19:49:33;;;;;;;8.38;3.30;;;;;;;12.36;100.00;101767.63;10529407;28;20071;-81
2023/06/02 19:54:35;;;;;;;11.55;3.53;;;;;;;12.02;100.00;101761.44;10508160;28;20127;-84
2023/06/02 19:59:35;;;;;;;11.32;3.40;;;;;;;11.80;100.00;101772.38;10510061;28;20035;-82
2023/06/02 20:04:36;;;;;;;6.60;3.75;;;;;;;11.49;100.00;101784.63;10510703;28;20036;-81
2023/06/02 20:09:36;;;;;;;11.93;4.55;;;;;;;11.22;100.00;101784.81;10529256;28;20190;-82
2023/06/02 20:14:37;;;;;;;10.27;4.15;;;;;;;11.03;100.00;101793.28;10527511;28;20093;-77
2023/06/02 20:19:37;;;;;;;9.63;4.57;;;;;;;10.89;100.00;101794.16;10507690;28;20127;-77
2023/06/02 20:24:38;;;;;;;9.57;3.83;;;;;;;10.82;100.00;101792.88;10532242;28;20124;-78
2023/06/02 20:29:38;;;;;;;14.98;4.40;;;;;;;10.75;100.00;101803.78;10526229;28;20074;-78
2023/06/02 20:34:39;;;;;;;7.65;3.88;;;;;;;10.50;100.00;101803.16;10525322;28;20046;-86
2023/06/02 20:39:40;;;;;;;12.48;3.40;;;;;;;10.35;100.00;101816.16;10508650;28;20495;-83
2023/06/02 20:44:40;;;;;;;7.38;3.25;;;;;;;10.26;100.00;101818.16;10524848;28;20119;-80
2023/06/02 20:49:41;;;;;;;12.20;4.78;;;;;;;10.17;100.00;101817.56;10523882;28;20036;-79
2023/06/02 20:54:42;;;;;;;13.32;3.92;;;;;;;10.02;100.00;101820.09;10506243;28;20518;-81
2023/06/02 20:59:42;;;;;;;9.63;5.15;;;;;;;9.93;100.00;101823.91;10544958;28;20127;-85
2023/06/02 21:04:44;;;;;;;9.95;4.90;;;;;;;9.80;100.00;101824.84;10525551;28;20490;-86
2023/06/02 21:09:45;;;;;;;8.47;4.57;;;;;;;9.67;100.00;101825.72;10523441;28;20036;-83
2023/06/02 21:14:48;;;;;;;9.23;4.05;;;;;;;9.60;100.00;101830.44;10498829;28;20124;-83
2023/06/02 21:19:58;;;;;;;15.15;6.90;;;;;;;9.47;100.00;101828.69;10539963;28;20442;-86
2023/06/02 21:25:00;;;;;;;16.15;5.88;;;;;;;9.39;100.00;101834.31;10497001;28;20079;-81
2023/06/02 21:30:01;;;;;;;;;;;;;;;9.35;100.00;101839.25;10503125;28;20050;-81
2023/06/02 21:35:01;;;;;;;12.93;5.57;;;;;;;9.27;100.00;101837.81;10502702;28;19928;-81
2023/06/02 21:40:18;;;;;;;9.57;5.05;;;;;;;9.22;100.00;101842.69;10487723;28;20501;-82
2023/06/02 21:45:18;;;;;;;9.32;4.53;;;;;;;9.13;100.00;101852.50;10526309;28;20036;-82
2023/06/02 21:50:19;;;;;;;9.40;6.45;;;;;;;9.05;100.00;101850.28;10507733;28;20491;-81
2023/06/02 21:55:20;;;;;;;9.85;5.28;;;;;;;9.07;100.00;101856.50;10464200;28;20032;-81
2023/06/02 22:00:20;;;;;;;10.13;5.07;;;;;;;9.02;100.00;101849.16;10481403;28;20075;-81
2023/06/02 22:05:21;;;;;;;11.82;5.32;;;;;;;8.93;100.00;101852.94;10514223;28;20158;-81
2023/06/02 22:10:21;;;;;;;10.70;6.50;;;;;;;8.86;100.00;101850.72;10513709;28;20483;-81
2023/06/02 22:15:22;;;;;;;17.27;5.15;;;;;;;8.76;100.00;101849.13;10512485;28;20548;-81
2023/06/02 22:20:24;;;;;;;14.63;5.63;;;;;;;8.72;100.00;101851.44;10514590;28;20032;-81
2023/06/02 22:25:25;;;;;;;18.27;6.85;;;;;;;8.68;100.00;101860.72;10513222;28;20075;-82
2023/06/02 22:30:25;;;;;;;8.45;5.35;;;;;;;8.61;100.00;101859.41;10531115;28;20048;-81
2023/06/02 22:35:26;;;;;;;8.93;6.22;;;;;;;8.62;100.00;101857.69;10512483;28;20072;-81
2023/06/02 22:40:26;;;;;;;13.20;5.55;;;;;;;8.64;100.00;101861.31;10513332;28;20114;-81
2023/06/02 22:45:27;;;;;;;10.07;6.00;;;;;;;8.73;100.00;101874.13;10495132;28;20055;-80
2023/06/02 22:50:27;;;;;;;12.77;7.55;;;;;;;8.65;100.00;101868.34;10495769;28;20040;-80
2023/06/02 22:55:28;;;;;;;12.48;6.78;;;;;;;8.57;100.00;101869.50;10528605;28;20040;-78